sensor_id;sensor_type;location;lat;lon;timestamp;P1;durP1;ratioP1;P2;durP2;ratioP2
39612;SDS011;25303;48.896;13.342;2022-12-18T00:02:38;5.88;;;2.30;;
39612;SDS011;25303;48.896;13.342;2022-12-18T00:05:22;8.15;;;2.38;;
39612;SDS011;25303;48.896;13.342;2022-12-18T00:08:06;4.28;;;1.52;;
39612;SDS011;25303;48.896;13.342;2022-12-18T00:10:49;5.25;;;1.75;;
39612;SDS011;25303;48.896;13.342;2022-12-18T00:13:33;5.10;;;2.07;;
39612;SDS011;25303;48.896;13.342;2022-12-18T00:16:18;7.47;;;1.95;;
39612;SDS011;25303;48.896;13.342;2022-12-18T00:19:02;6.30;;;1.77;;
39612;SDS011;25303;48.896;13.342;2022-12-18T00:21:46;5.43;;;1.45;;
39612;SDS011;25303;48.896;13.342;2022-12-18T00:24:30;5.32;;;1.92;;
39612;SDS011;25303;48.896;13.342;2022-12-18T00:27:13;4.72;;;1.20;;
39612;SDS011;25303;48.896;13.342;2022-12-18T00:29:56;5.55;;;1.52;;
39612;SDS011;25303;48.896;13.342;2022-12-18T00:32:39;3.55;;;1.23;;
39612;SDS011;25303;48.896;13.342;2022-12-18T00:35:21;3.95;;;1.38;;
39612;SDS011;25303;48.896;13.342;2022-12-18T00:38:05;3.60;;;1.40;;
39612;SDS011;25303;48.896;13.342;2022-12-18T00:40:50;4.50;;;1.35;;
39612;SDS011;25303;48.896;13.342;2022-12-18T00:46:16;3.13;;;1.15;;
39612;SDS011;25303;48.896;13.342;2022-12-18T00:48:59;4.45;;;1.25;;
39612;SDS011;25303;48.896;13.342;2022-12-18T00:51:43;3.80;;;1.20;;
39612;SDS011;25303;48.896;13.342;2022-12-18T00:54:26;4.83;;;1.30;;
39612;SDS011;25303;48.896;13.342;2022-12-18T00:57:10;5.35;;;1.60;;
39612;SDS011;25303;48.896;13.342;2022-12-18T01:02:35;3.75;;;1.30;;
39612;SDS011;25303;48.896;13.342;2022-12-18T01:05:20;6.18;;;1.45;;
39612;SDS011;25303;48.896;13.342;2022-12-18T01:08:03;5.80;;;1.48;;
39612;SDS011;25303;48.896;13.342;2022-12-18T01:10:46;5.03;;;1.73;;
39612;SDS011;25303;48.896;13.342;2022-12-18T01:13:30;4.65;;;1.60;;
39612;SDS011;25303;48.896;13.342;2022-12-18T01:18:57;4.00;;;1.58;;
39612;SDS011;25303;48.896;13.342;2022-12-18T01:24:23;6.43;;;2.08;;
39612;SDS011;25303;48.896;13.342;2022-12-18T01:27:06;5.47;;;2.10;;
39612;SDS011;25303;48.896;13.342;2022-12-18T01:29:51;6.38;;;1.85;;
39612;SDS011;25303;48.896;13.342;2022-12-18T01:32:34;3.58;;;1.42;;
39612;SDS011;25303;48.896;13.342;2022-12-18T01:35:17;5.22;;;1.70;;
39612;SDS011;25303;48.896;13.342;2022-12-18T01:38:00;5.53;;;1.60;;
39612;SDS011;25303;48.896;13.342;2022-12-18T01:40:43;5.50;;;1.88;;
39612;SDS011;25303;48.896;13.342;2022-12-18T01:43:40;4.18;;;1.50;;
39612;SDS011;25303;48.896;13.342;2022-12-18T01:46:26;4.60;;;1.45;;
39612;SDS011;25303;48.896;13.342;2022-12-18T01:49:10;4.53;;;1.80;;
39612;SDS011;25303;48.896;13.342;2022-12-18T01:51:53;6.35;;;1.60;;
39612;SDS011;25303;48.896;13.342;2022-12-18T01:54:36;6.43;;;1.70;;
39612;SDS011;25303;48.896;13.342;2022-12-18T01:57:19;5.57;;;1.55;;
39612;SDS011;25303;48.896;13.342;2022-12-18T02:00:05;6.03;;;1.70;;
39612;SDS011;25303;48.896;13.342;2022-12-18T02:02:54;5.68;;;1.63;;
39612;SDS011;25303;48.896;13.342;2022-12-18T02:05:40;4.22;;;1.50;;
39612;SDS011;25303;48.896;13.342;2022-12-18T02:08:32;6.50;;;1.90;;
39612;SDS011;25303;48.896;13.342;2022-12-18T02:11:22;5.13;;;1.58;;
39612;SDS011;25303;48.896;13.342;2022-12-18T02:14:17;4.28;;;1.70;;
39612;SDS011;25303;48.896;13.342;2022-12-18T02:17:10;2.83;;;1.13;;
39612;SDS011;25303;48.896;13.342;2022-12-18T02:20:04;6.38;;;1.70;;
39612;SDS011;25303;48.896;13.342;2022-12-18T02:23:01;5.80;;;2.00;;
39612;SDS011;25303;48.896;13.342;2022-12-18T02:25:58;3.60;;;1.30;;
39612;SDS011;25303;48.896;13.342;2022-12-18T02:28:49;2.90;;;1.40;;
39612;SDS011;25303;48.896;13.342;2022-12-18T02:31:36;5.93;;;1.50;;
39612;SDS011;25303;48.896;13.342;2022-12-18T02:34:23;6.38;;;1.77;;
39612;SDS011;25303;48.896;13.342;2022-12-18T02:37:12;6.28;;;1.80;;
39612;SDS011;25303;48.896;13.342;2022-12-18T02:39:57;7.50;;;1.70;;
39612;SDS011;25303;48.896;13.342;2022-12-18T02:42:45;4.00;;;1.52;;
39612;SDS011;25303;48.896;13.342;2022-12-18T02:45:31;6.53;;;1.80;;
39612;SDS011;25303;48.896;13.342;2022-12-18T02:48:15;5.18;;;1.80;;
39612;SDS011;25303;48.896;13.342;2022-12-18T02:51:02;7.18;;;1.83;;
39612;SDS011;25303;48.896;13.342;2022-12-18T02:53:51;5.22;;;1.80;;
39612;SDS011;25303;48.896;13.342;2022-12-18T02:56:42;6.53;;;1.73;;
39612;SDS011;25303;48.896;13.342;2022-12-18T02:59:37;7.10;;;2.00;;
39612;SDS011;25303;48.896;13.342;2022-12-18T03:02:26;6.65;;;1.85;;
39612;SDS011;25303;48.896;13.342;2022-12-18T03:05:16;4.93;;;1.63;;
39612;SDS011;25303;48.896;13.342;2022-12-18T03:08:05;3.60;;;1.20;;
39612;SDS011;25303;48.896;13.342;2022-12-18T03:10:54;2.60;;;0.93;;
39612;SDS011;25303;48.896;13.342;2022-12-18T03:13:43;5.28;;;1.20;;
39612;SDS011;25303;48.896;13.342;2022-12-18T03:16:31;2.72;;;0.90;;
39612;SDS011;25303;48.896;13.342;2022-12-18T03:19:20;3.80;;;1.00;;
39612;SDS011;25303;48.896;13.342;2022-12-18T03:22:07;3.58;;;1.02;;
39612;SDS011;25303;48.896;13.342;2022-12-18T03:24:58;2.30;;;0.80;;
39612;SDS011;25303;48.896;13.342;2022-12-18T03:27:46;6.25;;;1.30;;
39612;SDS011;25303;48.896;13.342;2022-12-18T03:30:31;5.55;;;1.10;;
39612;SDS011;25303;48.896;13.342;2022-12-18T03:33:19;6.78;;;1.48;;
39612;SDS011;25303;48.896;13.342;2022-12-18T03:36:09;3.78;;;1.35;;
39612;SDS011;25303;48.896;13.342;2022-12-18T03:38:52;5.53;;;1.20;;
39612;SDS011;25303;48.896;13.342;2022-12-18T03:41:41;4.00;;;1.30;;
39612;SDS011;25303;48.896;13.342;2022-12-18T03:44:48;5.50;;;1.27;;
39612;SDS011;25303;48.896;13.342;2022-12-18T03:47:38;3.30;;;1.40;;
39612;SDS011;25303;48.896;13.342;2022-12-18T03:50:30;3.00;;;1.30;;
39612;SDS011;25303;48.896;13.342;2022-12-18T03:53:23;2.58;;;0.93;;
39612;SDS011;25303;48.896;13.342;2022-12-18T03:56:14;2.53;;;0.80;;
39612;SDS011;25303;48.896;13.342;2022-12-18T03:58:59;3.95;;;1.27;;
39612;SDS011;25303;48.896;13.342;2022-12-18T04:01:47;6.63;;;1.80;;
39612;SDS011;25303;48.896;13.342;2022-12-18T04:04:33;4.57;;;1.75;;
39612;SDS011;25303;48.896;13.342;2022-12-18T04:07:20;5.72;;;1.80;;
39612;SDS011;25303;48.896;13.342;2022-12-18T04:10:05;3.75;;;1.20;;
39612;SDS011;25303;48.896;13.342;2022-12-18T04:12:49;3.05;;;1.00;;
39612;SDS011;25303;48.896;13.342;2022-12-18T04:15:33;4.15;;;1.33;;
39612;SDS011;25303;48.896;13.342;2022-12-18T04:18:20;4.90;;;1.30;;
39612;SDS011;25303;48.896;13.342;2022-12-18T04:21:03;2.30;;;0.82;;
39612;SDS011;25303;48.896;13.342;2022-12-18T04:23:48;3.85;;;1.40;;
39612;SDS011;25303;48.896;13.342;2022-12-18T04:26:34;4.00;;;1.10;;
39612;SDS011;25303;48.896;13.342;2022-12-18T04:29:28;2.85;;;1.10;;
39612;SDS011;25303;48.896;13.342;2022-12-18T04:32:11;2.35;;;0.73;;
39612;SDS011;25303;48.896;13.342;2022-12-18T04:34:57;4.78;;;1.00;;
39612;SDS011;25303;48.896;13.342;2022-12-18T04:37:40;2.05;;;0.80;;
39612;SDS011;25303;48.896;13.342;2022-12-18T04:40:25;3.90;;;1.00;;
39612;SDS011;25303;48.896;13.342;2022-12-18T04:43:08;3.92;;;0.90;;
39612;SDS011;25303;48.896;13.342;2022-12-18T04:45:51;4.37;;;1.30;;
39612;SDS011;25303;48.896;13.342;2022-12-18T04:48:34;2.95;;;0.98;;
39612;SDS011;25303;48.896;13.342;2022-12-18T04:51:18;2.58;;;1.05;;
39612;SDS011;25303;48.896;13.342;2022-12-18T04:54:07;3.90;;;1.30;;
39612;SDS011;25303;48.896;13.342;2022-12-18T04:56:51;3.50;;;1.13;;
39612;SDS011;25303;48.896;13.342;2022-12-18T04:59:34;4.00;;;1.10;;
39612;SDS011;25303;48.896;13.342;2022-12-18T05:02:17;2.70;;;1.13;;
39612;SDS011;25303;48.896;13.342;2022-12-18T05:05:01;2.72;;;1.08;;
39612;SDS011;25303;48.896;13.342;2022-12-18T05:07:44;3.97;;;1.40;;
39612;SDS011;25303;48.896;13.342;2022-12-18T05:10:26;7.93;;;1.70;;
39612;SDS011;25303;48.896;13.342;2022-12-18T05:13:19;4.22;;;1.33;;
39612;SDS011;25303;48.896;13.342;2022-12-18T05:18:45;4.70;;;1.20;;
39612;SDS011;25303;48.896;13.342;2022-12-18T05:21:28;2.78;;;1.17;;
39612;SDS011;25303;48.896;13.342;2022-12-18T05:24:10;3.42;;;1.27;;
39612;SDS011;25303;48.896;13.342;2022-12-18T05:26:53;4.28;;;0.95;;
39612;SDS011;25303;48.896;13.342;2022-12-18T05:29:38;2.28;;;1.00;;
39612;SDS011;25303;48.896;13.342;2022-12-18T05:35:04;1.83;;;0.77;;
39612;SDS011;25303;48.896;13.342;2022-12-18T05:37:48;4.90;;;1.00;;
39612;SDS011;25303;48.896;13.342;2022-12-18T05:40:31;3.38;;;1.10;;
39612;SDS011;25303;48.896;13.342;2022-12-18T05:43:14;2.75;;;1.00;;
39612;SDS011;25303;48.896;13.342;2022-12-18T05:46:06;5.38;;;1.02;;
39612;SDS011;25303;48.896;13.342;2022-12-18T05:48:50;6.30;;;1.42;;
39612;SDS011;25303;48.896;13.342;2022-12-18T05:51:33;3.85;;;0.93;;
39612;SDS011;25303;48.896;13.342;2022-12-18T05:54:16;2.95;;;0.90;;
39612;SDS011;25303;48.896;13.342;2022-12-18T05:56:59;1.85;;;0.80;;
39612;SDS011;25303;48.896;13.342;2022-12-18T05:59:42;2.95;;;1.17;;
39612;SDS011;25303;48.896;13.342;2022-12-18T06:02:26;3.50;;;1.10;;
39612;SDS011;25303;48.896;13.342;2022-12-18T06:05:09;3.78;;;1.15;;
39612;SDS011;25303;48.896;13.342;2022-12-18T06:07:52;3.50;;;1.20;;
39612;SDS011;25303;48.896;13.342;2022-12-18T06:10:36;1.75;;;0.80;;
39612;SDS011;25303;48.896;13.342;2022-12-18T06:13:19;2.65;;;0.90;;
39612;SDS011;25303;48.896;13.342;2022-12-18T06:16:02;2.03;;;0.80;;
39612;SDS011;25303;48.896;13.342;2022-12-18T06:18:47;2.22;;;0.88;;
39612;SDS011;25303;48.896;13.342;2022-12-18T06:21:30;2.22;;;0.70;;
39612;SDS011;25303;48.896;13.342;2022-12-18T06:24:15;2.95;;;1.00;;
39612;SDS011;25303;48.896;13.342;2022-12-18T06:26:58;2.95;;;0.70;;
39612;SDS011;25303;48.896;13.342;2022-12-18T06:29:41;2.30;;;0.80;;
39612;SDS011;25303;48.896;13.342;2022-12-18T06:32:24;1.10;;;0.63;;
39612;SDS011;25303;48.896;13.342;2022-12-18T06:35:08;1.45;;;0.80;;
39612;SDS011;25303;48.896;13.342;2022-12-18T06:37:51;2.00;;;0.73;;
39612;SDS011;25303;48.896;13.342;2022-12-18T06:40:35;1.05;;;0.70;;
39612;SDS011;25303;48.896;13.342;2022-12-18T06:43:19;0.98;;;0.45;;
39612;SDS011;25303;48.896;13.342;2022-12-18T06:46:02;1.10;;;0.50;;
39612;SDS011;25303;48.896;13.342;2022-12-18T06:48:47;1.38;;;0.40;;
39612;SDS011;25303;48.896;13.342;2022-12-18T06:51:32;0.88;;;0.40;;
39612;SDS011;25303;48.896;13.342;2022-12-18T06:54:15;1.05;;;0.40;;
39612;SDS011;25303;48.896;13.342;2022-12-18T06:56:58;1.40;;;0.50;;
39612;SDS011;25303;48.896;13.342;2022-12-18T06:59:41;1.00;;;0.40;;
39612;SDS011;25303;48.896;13.342;2022-12-18T07:02:23;2.15;;;0.32;;
39612;SDS011;25303;48.896;13.342;2022-12-18T07:05:06;0.73;;;0.30;;
39612;SDS011;25303;48.896;13.342;2022-12-18T07:07:52;3.45;;;0.60;;
39612;SDS011;25303;48.896;13.342;2022-12-18T07:13:28;2.53;;;0.40;;
39612;SDS011;25303;48.896;13.342;2022-12-18T07:16:12;1.00;;;0.38;;
39612;SDS011;25303;48.896;13.342;2022-12-18T07:19:04;0.77;;;0.30;;
39612;SDS011;25303;48.896;13.342;2022-12-18T07:21:47;0.75;;;0.40;;
39612;SDS011;25303;48.896;13.342;2022-12-18T07:24:31;1.13;;;0.40;;
39612;SDS011;25303;48.896;13.342;2022-12-18T07:27:15;1.40;;;0.47;;
39612;SDS011;25303;48.896;13.342;2022-12-18T07:29:58;1.30;;;0.40;;
39612;SDS011;25303;48.896;13.342;2022-12-18T07:32:41;1.10;;;0.50;;
39612;SDS011;25303;48.896;13.342;2022-12-18T07:35:24;1.42;;;0.35;;
39612;SDS011;25303;48.896;13.342;2022-12-18T07:38:06;3.17;;;0.47;;
39612;SDS011;25303;48.896;13.342;2022-12-18T07:40:51;1.08;;;0.32;;
39612;SDS011;25303;48.896;13.342;2022-12-18T07:46:17;0.73;;;0.20;;
39612;SDS011;25303;48.896;13.342;2022-12-18T07:49:01;0.75;;;0.30;;
39612;SDS011;25303;48.896;13.342;2022-12-18T07:51:44;0.65;;;0.32;;
39612;SDS011;25303;48.896;13.342;2022-12-18T07:54:30;0.70;;;0.30;;
39612;SDS011;25303;48.896;13.342;2022-12-18T07:57:16;0.93;;;0.20;;
39612;SDS011;25303;48.896;13.342;2022-12-18T08:00:19;0.20;;;0.20;;
39612;SDS011;25303;48.896;13.342;2022-12-18T08:03:02;0.40;;;0.20;;
39612;SDS011;25303;48.896;13.342;2022-12-18T08:05:49;0.40;;;0.20;;
39612;SDS011;25303;48.896;13.342;2022-12-18T08:08:32;0.63;;;0.40;;
39612;SDS011;25303;48.896;13.342;2022-12-18T08:11:15;0.83;;;0.40;;
39612;SDS011;25303;48.896;13.342;2022-12-18T08:14:01;0.20;;;0.20;;
39612;SDS011;25303;48.896;13.342;2022-12-18T08:19:26;1.05;;;0.20;;
39612;SDS011;25303;48.896;13.342;2022-12-18T08:22:09;0.30;;;0.20;;
39612;SDS011;25303;48.896;13.342;2022-12-18T08:24:52;1.00;;;0.30;;
39612;SDS011;25303;48.896;13.342;2022-12-18T08:27:35;2.05;;;0.38;;
39612;SDS011;25303;48.896;13.342;2022-12-18T08:30:19;0.95;;;0.50;;
39612;SDS011;25303;48.896;13.342;2022-12-18T08:33:02;1.08;;;0.50;;
39612;SDS011;25303;48.896;13.342;2022-12-18T08:35:45;0.75;;;0.50;;
39612;SDS011;25303;48.896;13.342;2022-12-18T08:38:28;0.65;;;0.38;;
39612;SDS011;25303;48.896;13.342;2022-12-18T08:41:13;1.38;;;0.70;;
39612;SDS011;25303;48.896;13.342;2022-12-18T08:43:58;2.38;;;0.50;;
39612;SDS011;25303;48.896;13.342;2022-12-18T08:46:59;1.02;;;0.40;;
39612;SDS011;25303;48.896;13.342;2022-12-18T08:49:42;1.23;;;0.40;;
39612;SDS011;25303;48.896;13.342;2022-12-18T08:52:25;1.33;;;0.43;;
39612;SDS011;25303;48.896;13.342;2022-12-18T08:55:08;1.42;;;0.63;;
39612;SDS011;25303;48.896;13.342;2022-12-18T08:57:51;1.00;;;0.52;;
39612;SDS011;25303;48.896;13.342;2022-12-18T09:00:34;0.98;;;0.65;;
39612;SDS011;25303;48.896;13.342;2022-12-18T09:03:18;1.20;;;0.40;;
39612;SDS011;25303;48.896;13.342;2022-12-18T09:06:04;1.50;;;0.63;;
39612;SDS011;25303;48.896;13.342;2022-12-18T09:08:47;1.42;;;0.70;;
39612;SDS011;25303;48.896;13.342;2022-12-18T09:11:31;1.90;;;1.00;;
39612;SDS011;25303;48.896;13.342;2022-12-18T09:14:14;1.08;;;0.75;;
39612;SDS011;25303;48.896;13.342;2022-12-18T09:16:57;1.42;;;0.70;;
39612;SDS011;25303;48.896;13.342;2022-12-18T09:19:41;1.67;;;0.60;;
39612;SDS011;25303;48.896;13.342;2022-12-18T09:22:24;1.27;;;0.70;;
39612;SDS011;25303;48.896;13.342;2022-12-18T09:25:07;5.53;;;1.80;;
39612;SDS011;25303;48.896;13.342;2022-12-18T09:27:50;6.20;;;1.98;;
39612;SDS011;25303;48.896;13.342;2022-12-18T09:30:33;3.28;;;1.30;;
39612;SDS011;25303;48.896;13.342;2022-12-18T09:33:17;2.70;;;1.00;;
39612;SDS011;25303;48.896;13.342;2022-12-18T09:36:02;2.33;;;0.90;;
39612;SDS011;25303;48.896;13.342;2022-12-18T09:38:48;2.75;;;1.05;;
39612;SDS011;25303;48.896;13.342;2022-12-18T09:41:36;2.25;;;0.80;;
39612;SDS011;25303;48.896;13.342;2022-12-18T09:44:25;1.88;;;0.60;;
39612;SDS011;25303;48.896;13.342;2022-12-18T09:47:10;1.67;;;0.80;;
39612;SDS011;25303;48.896;13.342;2022-12-18T09:49:58;1.80;;;0.60;;
39612;SDS011;25303;48.896;13.342;2022-12-18T09:52:45;1.67;;;0.70;;
39612;SDS011;25303;48.896;13.342;2022-12-18T09:55:31;2.38;;;0.82;;
39612;SDS011;25303;48.896;13.342;2022-12-18T09:58:19;2.42;;;0.88;;
39612;SDS011;25303;48.896;13.342;2022-12-18T10:01:09;1.30;;;0.73;;
39612;SDS011;25303;48.896;13.342;2022-12-18T10:03:53;3.72;;;0.93;;
39612;SDS011;25303;48.896;13.342;2022-12-18T10:06:38;3.53;;;1.20;;
39612;SDS011;25303;48.896;13.342;2022-12-18T10:09:30;3.97;;;1.45;;
39612;SDS011;25303;48.896;13.342;2022-12-18T10:12:19;3.47;;;1.38;;
39612;SDS011;25303;48.896;13.342;2022-12-18T10:15:06;3.67;;;1.45;;
39612;SDS011;25303;48.896;13.342;2022-12-18T10:17:58;7.45;;;1.70;;
39612;SDS011;25303;48.896;13.342;2022-12-18T10:20:48;7.63;;;2.30;;
39612;SDS011;25303;48.896;13.342;2022-12-18T10:23:37;6.28;;;2.20;;
39612;SDS011;25303;48.896;13.342;2022-12-18T10:26:30;3.65;;;1.60;;
39612;SDS011;25303;48.896;13.342;2022-12-18T10:29:14;3.75;;;1.60;;
39612;SDS011;25303;48.896;13.342;2022-12-18T10:31:58;3.22;;;1.20;;
39612;SDS011;25303;48.896;13.342;2022-12-18T10:34:44;1.67;;;0.82;;
39612;SDS011;25303;48.896;13.342;2022-12-18T10:37:28;2.97;;;0.90;;
39612;SDS011;25303;48.896;13.342;2022-12-18T10:43:10;7.07;;;2.10;;
39612;SDS011;25303;48.896;13.342;2022-12-18T10:46:00;12.15;;;3.13;;
39612;SDS011;25303;48.896;13.342;2022-12-18T10:48:50;27.92;;;5.13;;
39612;SDS011;25303;48.896;13.342;2022-12-18T10:51:36;13.05;;;3.38;;
39612;SDS011;25303;48.896;13.342;2022-12-18T10:54:21;11.23;;;2.75;;
39612;SDS011;25303;48.896;13.342;2022-12-18T10:57:15;13.55;;;3.45;;
39612;SDS011;25303;48.896;13.342;2022-12-18T11:00:01;21.70;;;5.75;;
39612;SDS011;25303;48.896;13.342;2022-12-18T11:03:07;15.43;;;3.70;;
39612;SDS011;25303;48.896;13.342;2022-12-18T11:06:14;6.63;;;1.67;;
39612;SDS011;25303;48.896;13.342;2022-12-18T11:11:42;5.60;;;1.88;;
39612;SDS011;25303;48.896;13.342;2022-12-18T11:14:32;5.85;;;2.10;;
39612;SDS011;25303;48.896;13.342;2022-12-18T11:17:29;1.75;;;0.95;;
39612;SDS011;25303;48.896;13.342;2022-12-18T11:20:20;2.72;;;0.90;;
39612;SDS011;25303;48.896;13.342;2022-12-18T11:23:10;3.00;;;0.80;;
39612;SDS011;25303;48.896;13.342;2022-12-18T11:25:56;2.55;;;1.00;;
39612;SDS011;25303;48.896;13.342;2022-12-18T11:28:41;3.67;;;1.05;;
39612;SDS011;25303;48.896;13.342;2022-12-18T11:31:27;3.65;;;1.10;;
39612;SDS011;25303;48.896;13.342;2022-12-18T11:34:15;2.35;;;1.20;;
39612;SDS011;25303;48.896;13.342;2022-12-18T11:37:10;2.75;;;1.17;;
39612;SDS011;25303;48.896;13.342;2022-12-18T11:39:56;2.35;;;1.00;;
39612;SDS011;25303;48.896;13.342;2022-12-18T11:42:44;2.35;;;0.95;;
39612;SDS011;25303;48.896;13.342;2022-12-18T11:45:34;1.77;;;0.80;;
39612;SDS011;25303;48.896;13.342;2022-12-18T11:48:24;3.65;;;1.00;;
39612;SDS011;25303;48.896;13.342;2022-12-18T11:51:12;1.70;;;0.90;;
39612;SDS011;25303;48.896;13.342;2022-12-18T11:54:09;3.42;;;1.00;;
39612;SDS011;25303;48.896;13.342;2022-12-18T11:56:56;2.00;;;1.10;;
39612;SDS011;25303;48.896;13.342;2022-12-18T11:59:48;2.00;;;1.10;;
39612;SDS011;25303;48.896;13.342;2022-12-18T12:02:47;3.50;;;1.35;;
39612;SDS011;25303;48.896;13.342;2022-12-18T12:05:48;5.50;;;1.58;;
39612;SDS011;25303;48.896;13.342;2022-12-18T12:11:34;13.80;;;3.95;;
39612;SDS011;25303;48.896;13.342;2022-12-18T12:14:34;20.40;;;4.03;;
39612;SDS011;25303;48.896;13.342;2022-12-18T12:17:29;25.17;;;5.00;;
39612;SDS011;25303;48.896;13.342;2022-12-18T12:20:19;13.70;;;3.38;;
39612;SDS011;25303;48.896;13.342;2022-12-18T12:23:09;13.50;;;3.28;;
39612;SDS011;25303;48.896;13.342;2022-12-18T12:26:10;6.15;;;1.98;;
39612;SDS011;25303;48.896;13.342;2022-12-18T12:29:00;5.70;;;1.80;;
39612;SDS011;25303;48.896;13.342;2022-12-18T12:31:55;37.83;;;9.10;;
39612;SDS011;25303;48.896;13.342;2022-12-18T12:34:50;31.70;;;8.60;;
39612;SDS011;25303;48.896;13.342;2022-12-18T12:37:52;34.15;;;8.20;;
39612;SDS011;25303;48.896;13.342;2022-12-18T12:40:45;26.15;;;7.43;;
39612;SDS011;25303;48.896;13.342;2022-12-18T12:43:44;22.45;;;5.70;;
39612;SDS011;25303;48.896;13.342;2022-12-18T12:46:32;19.67;;;4.75;;
39612;SDS011;25303;48.896;13.342;2022-12-18T12:49:20;14.35;;;4.00;;
39612;SDS011;25303;48.896;13.342;2022-12-18T12:52:10;44.78;;;8.27;;
39612;SDS011;25303;48.896;13.342;2022-12-18T12:54:58;31.92;;;6.43;;
39612;SDS011;25303;48.896;13.342;2022-12-18T12:57:43;14.02;;;3.88;;
39612;SDS011;25303;48.896;13.342;2022-12-18T13:00:35;21.65;;;6.13;;
39612;SDS011;25303;48.896;13.342;2022-12-18T13:03:27;25.25;;;6.20;;
39612;SDS011;25303;48.896;13.342;2022-12-18T13:06:23;17.70;;;5.00;;
39612;SDS011;25303;48.896;13.342;2022-12-18T13:09:17;13.95;;;4.65;;
39612;SDS011;25303;48.896;13.342;2022-12-18T13:12:02;6.30;;;2.77;;
39612;SDS011;25303;48.896;13.342;2022-12-18T13:15:12;4.60;;;1.85;;
39612;SDS011;25303;48.896;13.342;2022-12-18T13:18:04;7.50;;;2.42;;
39612;SDS011;25303;48.896;13.342;2022-12-18T13:21:01;5.78;;;2.25;;
39612;SDS011;25303;48.896;13.342;2022-12-18T13:24:13;3.75;;;1.60;;
39612;SDS011;25303;48.896;13.342;2022-12-18T13:27:14;3.97;;;1.63;;
39612;SDS011;25303;48.896;13.342;2022-12-18T13:30:49;3.33;;;1.30;;
39612;SDS011;25303;48.896;13.342;2022-12-18T13:33:55;2.45;;;1.00;;
39612;SDS011;25303;48.896;13.342;2022-12-18T13:43:41;2.90;;;1.13;;
39612;SDS011;25303;48.896;13.342;2022-12-18T13:46:27;3.63;;;1.30;;
39612;SDS011;25303;48.896;13.342;2022-12-18T13:49:19;1.88;;;0.85;;
39612;SDS011;25303;48.896;13.342;2022-12-18T13:52:14;1.98;;;1.00;;
39612;SDS011;25303;48.896;13.342;2022-12-18T13:55:01;2.15;;;0.90;;
39612;SDS011;25303;48.896;13.342;2022-12-18T13:57:48;2.17;;;1.00;;
39612;SDS011;25303;48.896;13.342;2022-12-18T14:00:31;2.00;;;0.80;;
39612;SDS011;25303;48.896;13.342;2022-12-18T14:03:16;2.75;;;1.02;;
39612;SDS011;25303;48.896;13.342;2022-12-18T14:06:05;3.55;;;1.10;;
39612;SDS011;25303;48.896;13.342;2022-12-18T14:08:50;6.05;;;2.25;;
39612;SDS011;25303;48.896;13.342;2022-12-18T14:11:33;4.38;;;1.90;;
39612;SDS011;25303;48.896;13.342;2022-12-18T14:14:18;4.07;;;1.67;;
39612;SDS011;25303;48.896;13.342;2022-12-18T14:17:07;4.63;;;1.27;;
39612;SDS011;25303;48.896;13.342;2022-12-18T14:19:53;2.72;;;1.05;;
39612;SDS011;25303;48.896;13.342;2022-12-18T14:22:37;1.90;;;0.80;;
39612;SDS011;25303;48.896;13.342;2022-12-18T14:25:25;2.50;;;0.95;;
39612;SDS011;25303;48.896;13.342;2022-12-18T14:28:12;1.33;;;0.75;;
39612;SDS011;25303;48.896;13.342;2022-12-18T14:30:58;2.58;;;1.02;;
39612;SDS011;25303;48.896;13.342;2022-12-18T14:33:41;2.15;;;0.80;;
39612;SDS011;25303;48.896;13.342;2022-12-18T14:36:25;2.38;;;0.80;;
39612;SDS011;25303;48.896;13.342;2022-12-18T14:39:12;3.40;;;0.90;;
39612;SDS011;25303;48.896;13.342;2022-12-18T14:41:59;3.45;;;0.90;;
39612;SDS011;25303;48.896;13.342;2022-12-18T14:44:42;2.80;;;0.90;;
39612;SDS011;25303;48.896;13.342;2022-12-18T14:47:45;5.57;;;2.28;;
39612;SDS011;25303;48.896;13.342;2022-12-18T14:50:28;16.85;;;6.22;;
39612;SDS011;25303;48.896;13.342;2022-12-18T14:53:21;9.80;;;3.63;;
39612;SDS011;25303;48.896;13.342;2022-12-18T14:56:13;4.88;;;2.00;;
39612;SDS011;25303;48.896;13.342;2022-12-18T14:59:00;4.00;;;1.67;;
39612;SDS011;25303;48.896;13.342;2022-12-18T15:01:46;22.50;;;8.23;;
39612;SDS011;25303;48.896;13.342;2022-12-18T15:04:33;13.20;;;5.28;;
39612;SDS011;25303;48.896;13.342;2022-12-18T15:07:17;6.03;;;2.35;;
39612;SDS011;25303;48.896;13.342;2022-12-18T15:10:03;4.50;;;1.63;;
39612;SDS011;25303;48.896;13.342;2022-12-18T15:13:07;3.83;;;1.30;;
39612;SDS011;25303;48.896;13.342;2022-12-18T15:15:52;3.70;;;1.60;;
39612;SDS011;25303;48.896;13.342;2022-12-18T15:18:38;3.30;;;1.58;;
39612;SDS011;25303;48.896;13.342;2022-12-18T15:21:26;3.97;;;1.48;;
39612;SDS011;25303;48.896;13.342;2022-12-18T15:24:15;5.05;;;1.80;;
39612;SDS011;25303;48.896;13.342;2022-12-18T15:27:00;3.80;;;1.60;;
39612;SDS011;25303;48.896;13.342;2022-12-18T15:29:44;4.60;;;1.58;;
39612;SDS011;25303;48.896;13.342;2022-12-18T15:32:42;4.95;;;1.88;;
39612;SDS011;25303;48.896;13.342;2022-12-18T15:35:26;3.22;;;1.85;;
39612;SDS011;25303;48.896;13.342;2022-12-18T15:38:08;3.90;;;1.92;;
39612;SDS011;25303;48.896;13.342;2022-12-18T15:40:51;4.30;;;1.77;;
39612;SDS011;25303;48.896;13.342;2022-12-18T15:43:37;3.47;;;1.40;;
39612;SDS011;25303;48.896;13.342;2022-12-18T15:46:22;4.30;;;1.77;;
39612;SDS011;25303;48.896;13.342;2022-12-18T15:49:07;4.97;;;2.10;;
39612;SDS011;25303;48.896;13.342;2022-12-18T15:51:51;3.63;;;1.63;;
39612;SDS011;25303;48.896;13.342;2022-12-18T15:54:36;3.88;;;1.77;;
39612;SDS011;25303;48.896;13.342;2022-12-18T15:57:39;3.53;;;1.50;;
39612;SDS011;25303;48.896;13.342;2022-12-18T16:00:22;3.13;;;1.27;;
39612;SDS011;25303;48.896;13.342;2022-12-18T16:03:08;5.55;;;2.00;;
39612;SDS011;25303;48.896;13.342;2022-12-18T16:05:52;26.00;;;9.43;;
39612;SDS011;25303;48.896;13.342;2022-12-18T16:08:36;47.35;;;16.35;;
39612;SDS011;25303;48.896;13.342;2022-12-18T16:11:22;66.65;;;22.17;;
39612;SDS011;25303;48.896;13.342;2022-12-18T16:14:20;26.70;;;9.60;;
39612;SDS011;25303;48.896;13.342;2022-12-18T16:17:06;27.38;;;10.30;;
39612;SDS011;25303;48.896;13.342;2022-12-18T16:19:54;15.63;;;5.93;;
39612;SDS011;25303;48.896;13.342;2022-12-18T16:22:37;7.68;;;3.30;;
39612;SDS011;25303;48.896;13.342;2022-12-18T16:25:21;5.20;;;1.93;;
39612;SDS011;25303;48.896;13.342;2022-12-18T16:28:05;4.72;;;1.85;;
39612;SDS011;25303;48.896;13.342;2022-12-18T16:30:48;3.05;;;1.45;;
39612;SDS011;25303;48.896;13.342;2022-12-18T16:33:31;3.58;;;1.55;;
39612;SDS011;25303;48.896;13.342;2022-12-18T16:36:15;3.20;;;1.20;;
39612;SDS011;25303;48.896;13.342;2022-12-18T16:38:58;3.45;;;1.15;;
39612;SDS011;25303;48.896;13.342;2022-12-18T16:41:49;2.45;;;1.08;;
39612;SDS011;25303;48.896;13.342;2022-12-18T16:44:31;2.25;;;1.10;;
39612;SDS011;25303;48.896;13.342;2022-12-18T16:47:14;2.72;;;1.02;;
39612;SDS011;25303;48.896;13.342;2022-12-18T16:49:58;1.83;;;0.97;;
39612;SDS011;25303;48.896;13.342;2022-12-18T16:52:42;2.17;;;0.80;;
39612;SDS011;25303;48.896;13.342;2022-12-18T16:55:25;2.40;;;0.73;;
39612;SDS011;25303;48.896;13.342;2022-12-18T16:58:08;2.95;;;0.82;;
39612;SDS011;25303;48.896;13.342;2022-12-18T17:00:51;1.85;;;0.90;;
39612;SDS011;25303;48.896;13.342;2022-12-18T17:03:34;3.70;;;1.17;;
39612;SDS011;25303;48.896;13.342;2022-12-18T17:06:16;3.35;;;1.00;;
39612;SDS011;25303;48.896;13.342;2022-12-18T17:09:04;3.03;;;1.20;;
39612;SDS011;25303;48.896;13.342;2022-12-18T17:11:48;1.77;;;0.75;;